sensor_id;sensor_type;location;lat;lon;timestamp;P1;durP1;ratioP1;P2;durP2;ratioP2
59028;SDS011;45919;51.420;5.454;2022-11-20T11:11:07;68.65;;;27.75;;
59028;SDS011;45919;51.420;5.454;2022-11-20T11:12:20;71.18;;;28.02;;
59028;SDS011;45919;51.420;5.454;2022-11-20T11:13:26;74.97;;;30.48;;
59028;SDS011;45919;51.420;5.454;2022-11-20T11:14:29;74.25;;;30.33;;
59028;SDS011;45919;51.420;5.454;2022-11-20T11:15:39;72.85;;;31.40;;
59028;SDS011;45919;51.420;5.454;2022-11-20T11:16:48;71.80;;;30.50;;
59028;SDS011;45919;51.420;5.454;2022-11-20T11:17:52;78.38;;;30.20;;
59028;SDS011;45919;51.420;5.454;2022-11-20T11:19:03;76.40;;;31.33;;
59028;SDS011;45919;51.420;5.454;2022-11-20T11:20:20;75.40;;;30.40;;
59028;SDS011;45919;51.420;5.454;2022-11-20T11:21:23;75.78;;;31.30;;
59028;SDS011;45919;51.420;5.454;2022-11-20T11:22:26;82.70;;;30.95;;
59028;SDS011;45919;51.420;5.454;2022-11-20T11:24:34;80.30;;;31.75;;
59028;SDS011;45919;51.420;5.454;2022-11-20T11:25:43;75.20;;;30.20;;
59028;SDS011;45919;51.420;5.454;2022-11-20T11:26:52;85.30;;;32.95;;
59028;SDS011;45919;51.420;5.454;2022-11-20T11:28:02;82.32;;;31.58;;
59028;SDS011;45919;51.420;5.454;2022-11-20T11:29:19;73.00;;;30.10;;
59028;SDS011;45919;51.420;5.454;2022-11-20T11:30:22;73.25;;;31.05;;
59028;SDS011;45919;51.420;5.454;2022-11-20T11:31:25;75.10;;;32.25;;
59028;SDS011;45919;51.420;5.454;2022-11-20T11:32:28;77.57;;;30.58;;
59028;SDS011;45919;51.420;5.454;2022-11-20T11:33:31;79.25;;;30.77;;
59028;SDS011;45919;51.420;5.454;2022-11-20T11:34:35;75.85;;;30.60;;
59028;SDS011;45919;51.420;5.454;2022-11-20T11:35:49;79.13;;;30.75;;
59028;SDS011;45919;51.420;5.454;2022-11-20T11:36:57;78.00;;;30.33;;
59028;SDS011;45919;51.420;5.454;2022-11-20T11:38:04;86.93;;;31.45;;
59028;SDS011;45919;51.420;5.454;2022-11-20T11:39:12;78.90;;;30.15;;
59028;SDS011;45919;51.420;5.454;2022-11-20T11:40:17;83.63;;;30.70;;
59028;SDS011;45919;51.420;5.454;2022-11-20T11:41:25;79.07;;;30.40;;
59028;SDS011;45919;51.420;5.454;2022-11-20T11:42:32;78.88;;;30.70;;
59028;SDS011;45919;51.420;5.454;2022-11-20T11:43:35;78.40;;;30.92;;
59028;SDS011;45919;51.420;5.454;2022-11-20T11:44:58;73.22;;;28.63;;
59028;SDS011;45919;51.420;5.454;2022-11-20T11:47:24;84.70;;;32.15;;
59028;SDS011;45919;51.420;5.454;2022-11-20T11:48:26;81.45;;;30.15;;
59028;SDS011;45919;51.420;5.454;2022-11-20T11:49:28;75.07;;;30.42;;
59028;SDS011;45919;51.420;5.454;2022-11-20T11:50:29;79.18;;;30.67;;
59028;SDS011;45919;51.420;5.454;2022-11-20T11:52:18;81.53;;;31.20;;
59028;SDS011;45919;51.420;5.454;2022-11-20T11:54:08;75.80;;;29.05;;
59028;SDS011;45919;51.420;5.454;2022-11-20T11:56:42;75.50;;;29.42;;
59028;SDS011;45919;51.420;5.454;2022-11-20T11:57:47;81.97;;;29.70;;
59028;SDS011;45919;51.420;5.454;2022-11-20T11:58:56;75.32;;;29.27;;
59028;SDS011;45919;51.420;5.454;2022-11-20T12:00:14;74.80;;;30.30;;
59028;SDS011;45919;51.420;5.454;2022-11-20T12:03:18;75.35;;;28.10;;
59028;SDS011;45919;51.420;5.454;2022-11-20T12:06:05;72.47;;;27.50;;
59028;SDS011;45919;51.420;5.454;2022-11-20T12:07:19;81.80;;;28.83;;
59028;SDS011;45919;51.420;5.454;2022-11-20T12:08:49;72.72;;;26.45;;
59028;SDS011;45919;51.420;5.454;2022-11-20T12:09:54;73.85;;;26.73;;
59028;SDS011;45919;51.420;5.454;2022-11-20T12:12:34;79.43;;;28.00;;
59028;SDS011;45919;51.420;5.454;2022-11-20T12:14:57;68.65;;;28.23;;
59028;SDS011;45919;51.420;5.454;2022-11-20T12:16:00;72.38;;;28.38;;
59028;SDS011;45919;51.420;5.454;2022-11-20T12:17:03;81.53;;;28.77;;
59028;SDS011;45919;51.420;5.454;2022-11-20T12:18:08;76.93;;;28.00;;
59028;SDS011;45919;51.420;5.454;2022-11-20T12:19:16;71.45;;;27.33;;
59028;SDS011;45919;51.420;5.454;2022-11-20T12:20:17;78.40;;;28.58;;
59028;SDS011;45919;51.420;5.454;2022-11-20T12:25:19;70.13;;;28.02;;
59028;SDS011;45919;51.420;5.454;2022-11-20T12:29:11;75.85;;;28.05;;
59028;SDS011;45919;51.420;5.454;2022-11-20T12:30:23;80.55;;;28.77;;
59028;SDS011;45919;51.420;5.454;2022-11-20T12:34:15;76.50;;;28.60;;
59028;SDS011;45919;51.420;5.454;2022-11-20T12:36:54;78.53;;;29.35;;
59028;SDS011;45919;51.420;5.454;2022-11-20T12:39:20;69.93;;;27.77;;
59028;SDS011;45919;51.420;5.454;2022-11-20T12:40:35;80.60;;;29.13;;
59028;SDS011;45919;51.420;5.454;2022-11-20T12:43:57;73.80;;;27.75;;
59028;SDS011;45919;51.420;5.454;2022-11-20T12:48:12;74.28;;;27.13;;
59028;SDS011;45919;51.420;5.454;2022-11-20T12:49:33;70.25;;;26.27;;
59028;SDS011;45919;51.420;5.454;2022-11-20T12:52:16;74.55;;;26.85;;
59028;SDS011;45919;51.420;5.454;2022-11-20T12:53:33;75.13;;;27.38;;
59028;SDS011;45919;51.420;5.454;2022-11-20T12:57:23;70.00;;;27.02;;
59028;SDS011;45919;51.420;5.454;2022-11-20T12:58:50;79.35;;;29.55;;
59028;SDS011;45919;51.420;5.454;2022-11-20T13:07:03;72.70;;;28.05;;
59028;SDS011;45919;51.420;5.454;2022-11-20T13:08:08;84.35;;;28.63;;
59028;SDS011;45919;51.420;5.454;2022-11-20T13:09:20;74.25;;;29.05;;
59028;SDS011;45919;51.420;5.454;2022-11-20T13:10:36;80.95;;;31.02;;
59028;SDS011;45919;51.420;5.454;2022-11-20T13:12:51;76.60;;;26.25;;
59028;SDS011;45919;51.420;5.454;2022-11-20T13:14:03;71.53;;;26.85;;
59028;SDS011;45919;51.420;5.454;2022-11-20T13:18:23;70.45;;;26.92;;
59028;SDS011;45919;51.420;5.454;2022-11-20T13:19:25;78.70;;;28.50;;
59028;SDS011;45919;51.420;5.454;2022-11-20T13:20:28;85.15;;;29.17;;
59028;SDS011;45919;51.420;5.454;2022-11-20T13:21:38;81.18;;;29.88;;
59028;SDS011;45919;51.420;5.454;2022-11-20T13:22:42;75.95;;;28.20;;
59028;SDS011;45919;51.420;5.454;2022-11-20T13:23:47;70.88;;;27.80;;
59028;SDS011;45919;51.420;5.454;2022-11-20T13:24:50;84.93;;;29.52;;
59028;SDS011;45919;51.420;5.454;2022-11-20T13:26:06;84.40;;;31.67;;
59028;SDS011;45919;51.420;5.454;2022-11-20T13:27:23;78.03;;;28.75;;
59028;SDS011;45919;51.420;5.454;2022-11-20T13:28:29;80.28;;;29.15;;
59028;SDS011;45919;51.420;5.454;2022-11-20T13:29:32;78.40;;;29.15;;
59028;SDS011;45919;51.420;5.454;2022-11-20T13:30:36;79.55;;;29.48;;
59028;SDS011;45919;51.420;5.454;2022-11-20T13:31:49;79.40;;;29.65;;
59028;SDS011;45919;51.420;5.454;2022-11-20T13:33:57;80.82;;;30.05;;
59028;SDS011;45919;51.420;5.454;2022-11-20T13:35:02;80.82;;;29.50;;
59028;SDS011;45919;51.420;5.454;2022-11-20T13:36:06;79.72;;;29.65;;
59028;SDS011;45919;51.420;5.454;2022-11-20T13:37:31;79.63;;;28.88;;
59028;SDS011;45919;51.420;5.454;2022-11-20T13:38:46;74.75;;;28.27;;
59028;SDS011;45919;51.420;5.454;2022-11-20T13:39:49;73.47;;;27.88;;
59028;SDS011;45919;51.420;5.454;2022-11-20T13:40:52;79.25;;;28.70;;
59028;SDS011;45919;51.420;5.454;2022-11-20T13:42:20;70.63;;;28.50;;
59028;SDS011;45919;51.420;5.454;2022-11-20T13:43:27;72.90;;;27.02;;
59028;SDS011;45919;51.420;5.454;2022-11-20T13:44:43;74.82;;;28.08;;
59028;SDS011;45919;51.420;5.454;2022-11-20T13:46:07;69.68;;;28.88;;
59028;SDS011;45919;51.420;5.454;2022-11-20T13:47:28;80.55;;;28.25;;
59028;SDS011;45919;51.420;5.454;2022-11-20T13:48:32;78.15;;;28.65;;
59028;SDS011;45919;51.420;5.454;2022-11-20T13:49:39;78.30;;;28.73;;
59028;SDS011;45919;51.420;5.454;2022-11-20T13:56:08;84.28;;;29.23;;
59028;SDS011;45919;51.420;5.454;2022-11-20T13:58:57;74.72;;;26.60;;
59028;SDS011;45919;51.420;5.454;2022-11-20T14:00:18;74.25;;;26.73;;
59028;SDS011;45919;51.420;5.454;2022-11-20T14:01:25;76.68;;;28.08;;
59028;SDS011;45919;51.420;5.454;2022-11-20T14:02:31;84.10;;;28.67;;
59028;SDS011;45919;51.420;5.454;2022-11-20T14:03:32;74.75;;;27.80;;
59028;SDS011;45919;51.420;5.454;2022-11-20T14:04:56;71.40;;;28.05;;
59028;SDS011;45919;51.420;5.454;2022-11-20T14:06:02;73.00;;;28.00;;
59028;SDS011;45919;51.420;5.454;2022-11-20T14:07:06;71.32;;;28.38;;
59028;SDS011;45919;51.420;5.454;2022-11-20T14:08:11;77.60;;;28.63;;
59028;SDS011;45919;51.420;5.454;2022-11-20T14:09:26;77.47;;;27.60;;
59028;SDS011;45919;51.420;5.454;2022-11-20T14:10:35;71.85;;;26.92;;
59028;SDS011;45919;51.420;5.454;2022-11-20T14:11:46;69.60;;;27.48;;
59028;SDS011;45919;51.420;5.454;2022-11-20T14:12:49;71.33;;;28.63;;
59028;SDS011;45919;51.420;5.454;2022-11-20T14:13:56;69.55;;;28.73;;
59028;SDS011;45919;51.420;5.454;2022-11-20T14:14:59;69.88;;;29.05;;
59028;SDS011;45919;51.420;5.454;2022-11-20T14:16:01;68.03;;;26.73;;
59028;SDS011;45919;51.420;5.454;2022-11-20T14:18:13;71.53;;;28.00;;
59028;SDS011;45919;51.420;5.454;2022-11-20T14:20:21;75.35;;;27.90;;
59028;SDS011;45919;51.420;5.454;2022-11-20T14:21:28;70.45;;;26.45;;
59028;SDS011;45919;51.420;5.454;2022-11-20T14:22:30;76.60;;;28.80;;
59028;SDS011;45919;51.420;5.454;2022-11-20T14:23:32;78.88;;;30.15;;
59028;SDS011;45919;51.420;5.454;2022-11-20T14:24:33;79.80;;;30.38;;
59028;SDS011;45919;51.420;5.454;2022-11-20T14:25:35;77.53;;;28.92;;
59028;SDS011;45919;51.420;5.454;2022-11-20T14:26:42;69.93;;;28.98;;
59028;SDS011;45919;51.420;5.454;2022-11-20T14:27:47;75.07;;;29.08;;
59028;SDS011;45919;51.420;5.454;2022-11-20T14:28:52;72.78;;;28.02;;
59028;SDS011;45919;51.420;5.454;2022-11-20T14:29:53;80.50;;;28.75;;
59028;SDS011;45919;51.420;5.454;2022-11-20T14:30:56;76.90;;;28.95;;
59028;SDS011;45919;51.420;5.454;2022-11-20T14:31:58;75.90;;;29.85;;
59028;SDS011;45919;51.420;5.454;2022-11-20T14:33:01;71.47;;;29.02;;
59028;SDS011;45919;51.420;5.454;2022-11-20T14:34:04;73.32;;;28.50;;
59028;SDS011;45919;51.420;5.454;2022-11-20T14:35:10;72.88;;;29.48;;
59028;SDS011;45919;51.420;5.454;2022-11-20T14:36:21;72.32;;;28.05;;
59028;SDS011;45919;51.420;5.454;2022-11-20T14:37:24;72.15;;;29.00;;
59028;SDS011;45919;51.420;5.454;2022-11-20T14:38:31;72.45;;;28.05;;
59028;SDS011;45919;51.420;5.454;2022-11-20T14:39:37;70.85;;;28.90;;
59028;SDS011;45919;51.420;5.454;2022-11-20T14:40:43;70.15;;;28.80;;
59028;SDS011;45919;51.420;5.454;2022-11-20T14:41:52;78.72;;;28.63;;
59028;SDS011;45919;51.420;5.454;2022-11-20T14:42:55;77.75;;;29.38;;
59028;SDS011;45919;51.420;5.454;2022-11-20T14:43:57;74.68;;;29.20;;
59028;SDS011;45919;51.420;5.454;2022-11-20T14:45:01;70.82;;;28.08;;
59028;SDS011;45919;51.420;5.454;2022-11-20T14:46:05;75.07;;;28.15;;
59028;SDS011;45919;51.420;5.454;2022-11-20T14:47:11;73.65;;;28.52;;
59028;SDS011;45919;51.420;5.454;2022-11-20T14:48:14;71.43;;;28.05;;
59028;SDS011;45919;51.420;5.454;2022-11-20T14:49:17;69.97;;;28.23;;
59028;SDS011;45919;51.420;5.454;2022-11-20T14:52:31;78.05;;;29.15;;
59028;SDS011;45919;51.420;5.454;2022-11-20T14:53:33;74.82;;;30.10;;
59028;SDS011;45919;51.420;5.454;2022-11-20T14:54:34;76.32;;;30.15;;
59028;SDS011;45919;51.420;5.454;2022-11-20T14:55:53;75.47;;;28.30;;
59028;SDS011;45919;51.420;5.454;2022-11-20T14:56:59;72.20;;;27.85;;
59028;SDS011;45919;51.420;5.454;2022-11-20T14:58:03;73.10;;;27.38;;
59028;SDS011;45919;51.420;5.454;2022-11-20T14:59:08;72.70;;;27.33;;
59028;SDS011;45919;51.420;5.454;2022-11-20T15:01:14;75.35;;;28.38;;
59028;SDS011;45919;51.420;5.454;2022-11-20T15:02:28;76.22;;;26.63;;
59028;SDS011;45919;51.420;5.454;2022-11-20T15:03:32;76.28;;;27.73;;
59028;SDS011;45919;51.420;5.454;2022-11-20T15:04:47;77.45;;;27.83;;
59028;SDS011;45919;51.420;5.454;2022-11-20T15:05:58;70.88;;;26.13;;
59028;SDS011;45919;51.420;5.454;2022-11-20T15:06:59;73.65;;;28.83;;
59028;SDS011;45919;51.420;5.454;2022-11-20T15:08:05;81.60;;;27.80;;
59028;SDS011;45919;51.420;5.454;2022-11-20T15:09:13;76.63;;;28.10;;
59028;SDS011;45919;51.420;5.454;2022-11-20T15:11:18;73.00;;;27.73;;
59028;SDS011;45919;51.420;5.454;2022-11-20T15:12:24;80.85;;;28.30;;
59028;SDS011;45919;51.420;5.454;2022-11-20T15:13:29;75.15;;;26.88;;
59028;SDS011;45919;51.420;5.454;2022-11-20T15:14:31;69.25;;;26.88;;
59028;SDS011;45919;51.420;5.454;2022-11-20T15:15:36;73.88;;;28.00;;
59028;SDS011;45919;51.420;5.454;2022-11-20T15:16:45;72.00;;;27.80;;
59028;SDS011;45919;51.420;5.454;2022-11-20T15:17:47;63.92;;;26.88;;
59028;SDS011;45919;51.420;5.454;2022-11-20T15:18:48;63.65;;;27.42;;
59028;SDS011;45919;51.420;5.454;2022-11-20T15:19:51;70.88;;;26.38;;
59028;SDS011;45919;51.420;5.454;2022-11-20T15:20:54;70.00;;;27.27;;
59028;SDS011;45919;51.420;5.454;2022-11-20T15:21:57;68.72;;;27.90;;
59028;SDS011;45919;51.420;5.454;2022-11-20T15:22:58;68.30;;;26.83;;
59028;SDS011;45919;51.420;5.454;2022-11-20T15:24:00;73.00;;;28.45;;
59028;SDS011;45919;51.420;5.454;2022-11-20T15:25:05;73.50;;;28.17;;
59028;SDS011;45919;51.420;5.454;2022-11-20T15:26:14;72.00;;;28.15;;
59028;SDS011;45919;51.420;5.454;2022-11-20T15:27:20;67.32;;;27.88;;
59028;SDS011;45919;51.420;5.454;2022-11-20T15:29:34;65.22;;;25.90;;
59028;SDS011;45919;51.420;5.454;2022-11-20T15:30:36;69.97;;;25.75;;
59028;SDS011;45919;51.420;5.454;2022-11-20T15:31:38;72.75;;;26.77;;
59028;SDS011;45919;51.420;5.454;2022-11-20T15:32:44;67.32;;;24.98;;
59028;SDS011;45919;51.420;5.454;2022-11-20T15:33:47;60.83;;;24.23;;
59028;SDS011;45919;51.420;5.454;2022-11-20T15:34:49;63.08;;;26.00;;
59028;SDS011;45919;51.420;5.454;2022-11-20T15:35:51;64.55;;;25.40;;
59028;SDS011;45919;51.420;5.454;2022-11-20T15:36:53;63.05;;;26.27;;
59028;SDS011;45919;51.420;5.454;2022-11-20T15:37:55;59.70;;;25.15;;
59028;SDS011;45919;51.420;5.454;2022-11-20T15:38:57;65.22;;;25.02;;
59028;SDS011;45919;51.420;5.454;2022-11-20T15:39:58;64.88;;;25.55;;
59028;SDS011;45919;51.420;5.454;2022-11-20T15:41:00;62.33;;;25.45;;
59028;SDS011;45919;51.420;5.454;2022-11-20T15:42:01;59.35;;;24.83;;
59028;SDS011;45919;51.420;5.454;2022-11-20T15:43:03;63.47;;;25.30;;
59028;SDS011;45919;51.420;5.454;2022-11-20T15:44:07;63.33;;;25.23;;
59028;SDS011;45919;51.420;5.454;2022-11-20T15:45:08;58.45;;;23.58;;
59028;SDS011;45919;51.420;5.454;2022-11-20T15:46:11;63.22;;;25.63;;
59028;SDS011;45919;51.420;5.454;2022-11-20T15:47:16;62.75;;;25.08;;
59028;SDS011;45919;51.420;5.454;2022-11-20T15:48:23;64.68;;;25.13;;
59028;SDS011;45919;51.420;5.454;2022-11-20T15:49:27;59.20;;;23.67;;
59028;SDS011;45919;51.420;5.454;2022-11-20T15:50:41;62.70;;;24.10;;
59028;SDS011;45919;51.420;5.454;2022-11-20T15:51:50;54.47;;;21.67;;
59028;SDS011;45919;51.420;5.454;2022-11-20T15:52:53;52.38;;;22.25;;
59028;SDS011;45919;51.420;5.454;2022-11-20T15:53:55;57.05;;;23.67;;
59028;SDS011;45919;51.420;5.454;2022-11-20T15:54:57;56.92;;;23.58;;
59028;SDS011;45919;51.420;5.454;2022-11-20T15:55:59;56.78;;;23.13;;
59028;SDS011;45919;51.420;5.454;2022-11-20T15:57:00;56.72;;;23.48;;
59028;SDS011;45919;51.420;5.454;2022-11-20T15:58:03;58.70;;;22.52;;
59028;SDS011;45919;51.420;5.454;2022-11-20T15:59:05;58.97;;;24.65;;
59028;SDS011;45919;51.420;5.454;2022-11-20T16:00:07;50.13;;;21.73;;
59028;SDS011;45919;51.420;5.454;2022-11-20T16:01:13;49.85;;;20.58;;
59028;SDS011;45919;51.420;5.454;2022-11-20T16:02:16;49.65;;;20.38;;
59028;SDS011;45919;51.420;5.454;2022-11-20T16:03:19;48.70;;;20.52;;
59028;SDS011;45919;51.420;5.454;2022-11-20T16:04:21;44.95;;;19.38;;
59028;SDS011;45919;51.420;5.454;2022-11-20T16:05:22;44.25;;;19.17;;
59028;SDS011;45919;51.420;5.454;2022-11-20T16:06:24;40.78;;;17.73;;
59028;SDS011;45919;51.420;5.454;2022-11-20T16:07:26;45.47;;;19.50;;
59028;SDS011;45919;51.420;5.454;2022-11-20T16:08:27;45.60;;;17.88;;
59028;SDS011;45919;51.420;5.454;2022-11-20T16:09:29;39.83;;;17.80;;
59028;SDS011;45919;51.420;5.454;2022-11-20T16:10:30;39.15;;;16.63;;
59028;SDS011;45919;51.420;5.454;2022-11-20T16:11:32;44.42;;;17.38;;
59028;SDS011;45919;51.420;5.454;2022-11-20T16:12:34;32.05;;;16.33;;
59028;SDS011;45919;51.420;5.454;2022-11-20T16:13:54;39.92;;;15.60;;
59028;SDS011;45919;51.420;5.454;2022-11-20T16:15:14;35.35;;;15.95;;
59028;SDS011;45919;51.420;5.454;2022-11-20T16:16:35;38.38;;;15.80;;
59028;SDS011;45919;51.420;5.454;2022-11-20T16:17:38;33.50;;;16.45;;
59028;SDS011;45919;51.420;5.454;2022-11-20T16:18:45;34.28;;;16.05;;
59028;SDS011;45919;51.420;5.454;2022-11-20T16:19:47;31.75;;;15.30;;
59028;SDS011;45919;51.420;5.454;2022-11-20T16:20:50;31.20;;;14.90;;
59028;SDS011;45919;51.420;5.454;2022-11-20T16:21:53;28.27;;;15.05;;
59028;SDS011;45919;51.420;5.454;2022-11-20T16:22:57;30.50;;;14.73;;
59028;SDS011;45919;51.420;5.454;2022-11-20T16:23:59;27.42;;;13.23;;
59028;SDS011;45919;51.420;5.454;2022-11-20T16:25:02;25.55;;;13.40;;
59028;SDS011;45919;51.420;5.454;2022-11-20T16:26:10;30.27;;;14.70;;
59028;SDS011;45919;51.420;5.454;2022-11-20T16:27:13;23.58;;;12.93;;
59028;SDS011;45919;51.420;5.454;2022-11-20T16:28:14;25.85;;;13.77;;
59028;SDS011;45919;51.420;5.454;2022-11-20T16:29:18;27.15;;;12.80;;
59028;SDS011;45919;51.420;5.454;2022-11-20T16:30:20;24.88;;;13.02;;
59028;SDS011;45919;51.420;5.454;2022-11-20T16:31:22;24.25;;;11.95;;
59028;SDS011;45919;51.420;5.454;2022-11-20T16:32:23;22.35;;;12.15;;
59028;SDS011;45919;51.420;5.454;2022-11-20T16:33:25;19.98;;;11.60;;
59028;SDS011;45919;51.420;5.454;2022-11-20T16:35:32;18.73;;;11.07;;
59028;SDS011;45919;51.420;5.454;2022-11-20T16:36:34;19.45;;;10.95;;
59028;SDS011;45919;51.420;5.454;2022-11-20T16:37:36;16.27;;;9.85;;
59028;SDS011;45919;51.420;5.454;2022-11-20T16:38:38;17.13;;;10.07;;
59028;SDS011;45919;51.420;5.454;2022-11-20T16:39:39;16.60;;;9.38;;
59028;SDS011;45919;51.420;5.454;2022-11-20T16:40:41;15.23;;;9.48;;
59028;SDS011;45919;51.420;5.454;2022-11-20T16:41:43;14.80;;;9.10;;
59028;SDS011;45919;51.420;5.454;2022-11-20T16:42:44;13.88;;;9.00;;
59028;SDS011;45919;51.420;5.454;2022-11-20T16:43:49;14.85;;;8.95;;
59028;SDS011;45919;51.420;5.454;2022-11-20T16:44:52;14.20;;;8.73;;
59028;SDS011;45919;51.420;5.454;2022-11-20T16:45:54;12.88;;;7.75;;
59028;SDS011;45919;51.420;5.454;2022-11-20T16:46:55;10.30;;;7.47;;
59028;SDS011;45919;51.420;5.454;2022-11-20T16:47:57;10.82;;;6.88;;
59028;SDS011;45919;51.420;5.454;2022-11-20T16:49:00;9.30;;;6.18;;
59028;SDS011;45919;51.420;5.454;2022-11-20T16:50:06;9.23;;;6.82;;
59028;SDS011;45919;51.420;5.454;2022-11-20T16:51:09;11.38;;;6.57;;
59028;SDS011;45919;51.420;5.454;2022-11-20T16:52:12;11.98;;;7.45;;
59028;SDS011;45919;51.420;5.454;2022-11-20T16:53:14;11.23;;;7.35;;
59028;SDS011;45919;51.420;5.454;2022-11-20T16:54:15;9.65;;;7.13;;
59028;SDS011;45919;51.420;5.454;2022-11-20T16:55:19;9.43;;;7.03;;
59028;SDS011;45919;51.420;5.454;2022-11-20T16:56:25;11.40;;;7.60;;
59028;SDS011;45919;51.420;5.454;2022-11-20T16:57:29;7.63;;;6.65;;
59028;SDS011;45919;51.420;5.454;2022-11-20T16:58:32;11.00;;;7.35;;
59028;SDS011;45919;51.420;5.454;2022-11-20T16:59:33;10.95;;;7.50;;
59028;SDS011;45919;51.420;5.454;2022-11-20T17:00:36;11.23;;;7.85;;
59028;SDS011;45919;51.420;5.454;2022-11-20T17:01:38;11.25;;;7.68;;
59028;SDS011;45919;51.420;5.454;2022-11-20T17:02:42;10.10;;;7.68;;
59028;SDS011;45919;51.420;5.454;2022-11-20T17:03:44;16.25;;;9.60;;
59028;SDS011;45919;51.420;5.454;2022-11-20T17:04:47;12.57;;;8.30;;
59028;SDS011;45919;51.420;5.454;2022-11-20T17:05:49;11.23;;;8.20;;
59028;SDS011;45919;51.420;5.454;2022-11-20T17:06:50;9.50;;;7.38;;
59028;SDS011;45919;51.420;5.454;2022-11-20T17:07:52;10.88;;;7.75;;
59028;SDS011;45919;51.420;5.454;2022-11-20T17:08:54;10.95;;;7.53;;
59028;SDS011;45919;51.420;5.454;2022-11-20T17:09:57;9.05;;;7.70;;
59028;SDS011;45919;51.420;5.454;2022-11-20T17:11:03;9.30;;;7.65;;
59028;SDS011;45919;51.420;5.454;2022-11-20T17:12:06;11.43;;;8.20;;
59028;SDS011;45919;51.420;5.454;2022-11-20T17:13:07;9.02;;;7.90;;
59028;SDS011;45919;51.420;5.454;2022-11-20T17:14:10;9.23;;;7.80;;
59028;SDS011;45919;51.420;5.454;2022-11-20T17:15:12;10.82;;;8.07;;
59028;SDS011;45919;51.420;5.454;2022-11-20T17:16:15;12.48;;;8.90;;
59028;SDS011;45919;51.420;5.454;2022-11-20T17:17:18;11.13;;;8.10;;
59028;SDS011;45919;51.420;5.454;2022-11-20T17:18:20;13.48;;;9.82;;
59028;SDS011;45919;51.420;5.454;2022-11-20T17:19:22;12.85;;;10.05;;
59028;SDS011;45919;51.420;5.454;2022-11-20T17:20:23;14.63;;;10.20;;
59028;SDS011;45919;51.420;5.454;2022-11-20T17:21:25;14.57;;;9.07;;
59028;SDS011;45919;51.420;5.454;2022-11-20T17:22:27;11.23;;;9.18;;
59028;SDS011;45919;51.420;5.454;2022-11-20T17:23:29;13.30;;;9.52;;
59028;SDS011;45919;51.420;5.454;2022-11-20T17:24:31;10.82;;;8.65;;
59028;SDS011;45919;51.420;5.454;2022-11-20T17:25:33;11.90;;;9.10;;
59028;SDS011;45919;51.420;5.454;2022-11-20T17:26:35;12.82;;;10.13;;
59028;SDS011;45919;51.420;5.454;2022-11-20T17:27:39;14.77;;;10.00;;
59028;SDS011;45919;51.420;5.454;2022-11-20T17:28:40;12.43;;;9.50;;
59028;SDS011;45919;51.420;5.454;2022-11-20T17:29:42;13.80;;;10.02;;
59028;SDS011;45919;51.420;5.454;2022-11-20T17:30:43;12.93;;;9.35;;
59028;SDS011;45919;51.420;5.454;2022-11-20T17:31:45;14.35;;;9.82;;
59028;SDS011;45919;51.420;5.454;2022-11-20T17:32:48;13.52;;;10.65;;
59028;SDS011;45919;51.420;5.454;2022-11-20T17:33:50;14.55;;;10.43;;
59028;SDS011;45919;51.420;5.454;2022-11-20T17:34:52;12.85;;;10.90;;
59028;SDS011;45919;51.420;5.454;2022-11-20T17:35:53;14.25;;;10.82;;
59028;SDS011;45919;51.420;5.454;2022-11-20T17:36:55;13.70;;;10.48;;
59028;SDS011;45919;51.420;5.454;2022-11-20T17:37:57;15.77;;;10.57;;
59028;SDS011;45919;51.420;5.454;2022-11-20T17:38:59;15.75;;;10.93;;
59028;SDS011;45919;51.420;5.454;2022-11-20T17:40:03;18.05;;;11.40;;
59028;SDS011;45919;51.420;5.454;2022-11-20T17:41:06;15.00;;;11.20;;
59028;SDS011;45919;51.420;5.454;2022-11-20T17:42:09;16.77;;;11.55;;
59028;SDS011;45919;51.420;5.454;2022-11-20T17:43:32;14.73;;;10.55;;
59028;SDS011;45919;51.420;5.454;2022-11-20T17:44:37;14.43;;;8.95;;
59028;SDS011;45919;51.420;5.454;2022-11-20T17:45:38;18.45;;;10.48;;
59028;SDS011;45919;51.420;5.454;2022-11-20T17:46:40;18.15;;;12.02;;
59028;SDS011;45919;51.420;5.454;2022-11-20T17:47:41;18.80;;;10.65;;
59028;SDS011;45919;51.420;5.454;2022-11-20T17:48:45;16.70;;;10.43;;
59028;SDS011;45919;51.420;5.454;2022-11-20T17:49:47;18.42;;;10.60;;
59028;SDS011;45919;51.420;5.454;2022-11-20T17:50:49;16.73;;;10.32;;
59028;SDS011;45919;51.420;5.454;2022-11-20T17:51:51;20.83;;;10.68;;
59028;SDS011;45919;51.420;5.454;2022-11-20T17:52:52;19.15;;;10.70;;
59028;SDS011;45919;51.420;5.454;2022-11-20T17:54:01;17.30;;;10.18;;
59028;SDS011;45919;51.420;5.454;2022-11-20T17:55:05;15.63;;;10.65;;
59028;SDS011;45919;51.420;5.454;2022-11-20T17:56:07;18.80;;;10.93;;
59028;SDS011;45919;51.420;5.454;2022-11-20T17:57:28;15.30;;;8.27;;
59028;SDS011;45919;51.420;5.454;2022-11-20T17:58:47;14.68;;;9.43;;
59028;SDS011;45919;51.420;5.454;2022-11-20T17:59:49;12.52;;;8.18;;
59028;SDS011;45919;51.420;5.454;2022-11-20T18:00:51;16.08;;;8.13;;
59028;SDS011;45919;51.420;5.454;2022-11-20T18:01:52;18.80;;;9.05;;
59028;SDS011;45919;51.420;5.454;2022-11-20T18:02:59;12.13;;;7.82;;
59028;SDS011;45919;51.420;5.454;2022-11-20T18:04:01;14.02;;;7.32;;
59028;SDS011;45919;51.420;5.454;2022-11-20T18:05:03;15.15;;;8.93;;
59028;SDS011;45919;51.420;5.454;2022-11-20T18:06:15;14.23;;;7.72;;
59028;SDS011;45919;51.420;5.454;2022-11-20T18:07:19;14.38;;;7.20;;
59028;SDS011;45919;51.420;5.454;2022-11-20T18:08:20;15.93;;;7.95;;
59028;SDS011;45919;51.420;5.454;2022-11-20T18:09:22;12.95;;;8.30;;
59028;SDS011;45919;51.420;5.454;2022-11-20T18:10:24;13.82;;;8.60;;
59028;SDS011;45919;51.420;5.454;2022-11-20T18:11:29;20.60;;;8.82;;
59028;SDS011;45919;51.420;5.454;2022-11-20T18:12:35;12.60;;;6.38;;
59028;SDS011;45919;51.420;5.454;2022-11-20T18:13:38;21.42;;;9.30;;
59028;SDS011;45919;51.420;5.454;2022-11-20T18:14:58;13.30;;;7.88;;
59028;SDS011;45919;51.420;5.454;2022-11-20T18:16:06;14.75;;;8.32;;
59028;SDS011;45919;51.420;5.454;2022-11-20T18:17:08;13.90;;;7.65;;
59028;SDS011;45919;51.420;5.454;2022-11-20T18:18:12;16.38;;;8.75;;
59028;SDS011;45919;51.420;5.454;2022-11-20T18:19:17;22.60;;;10.30;;
59028;SDS011;45919;51.420;5.454;2022-11-20T18:20:21;14.02;;;7.88;;
59028;SDS011;45919;51.420;5.454;2022-11-20T18:21:32;18.25;;;9.57;;
59028;SDS011;45919;51.420;5.454;2022-11-20T18:22:34;17.05;;;9.48;;
59028;SDS011;45919;51.420;5.454;2022-11-20T18:23:35;12.82;;;7.20;;
59028;SDS011;45919;51.420;5.454;2022-11-20T18:24:37;16.70;;;8.52;;
59028;SDS011;45919;51.420;5.454;2022-11-20T18:25:42;15.27;;;8.48;;
59028;SDS011;45919;51.420;5.454;2022-11-20T18:26:44;18.25;;;7.82;;
59028;SDS011;45919;51.420;5.454;2022-11-20T18:27:46;16.23;;;8.88;;
59028;SDS011;45919;51.420;5.454;2022-11-20T18:28:48;15.68;;;8.65;;
59028;SDS011;45919;51.420;5.454;2022-11-20T18:29:50;16.88;;;9.43;;
59028;SDS011;45919;51.420;5.454;2022-11-20T18:30:54;16.45;;;7.05;;
59028;SDS011;45919;51.420;5.454;2022-11-20T18:31:56;15.98;;;9.00;;
59028;SDS011;45919;51.420;5.454;2022-11-20T18:32:58;17.10;;;7.68;;
59028;SDS011;45919;51.420;5.454;2022-11-20T18:34:00;16.88;;;8.80;;
59028;SDS011;45919;51.420;5.454;2022-11-20T18:35:01;18.27;;;9.82;;
59028;SDS011;45919;51.420;5.454;2022-11-20T18:36:09;16.60;;;9.77;;
59028;SDS011;45919;51.420;5.454;2022-11-20T18:38:17;13.55;;;9.15;;